sensor_id;sensor_type;location;lat;lon;timestamp;P1;durP1;ratioP1;P2;durP2;ratioP2
55037;SDS011;40937;53.594;10.034;2023-05-07T00:01:04;13.77;;;11.38;;
55037;SDS011;40937;53.594;10.034;2023-05-07T00:03:31;13.85;;;12.75;;
55037;SDS011;40937;53.594;10.034;2023-05-07T00:05:58;14.95;;;13.63;;
55037;SDS011;40937;53.594;10.034;2023-05-07T00:08:25;13.05;;;11.93;;
55037;SDS011;40937;53.594;10.034;2023-05-07T00:10:52;13.93;;;12.80;;
55037;SDS011;40937;53.594;10.034;2023-05-07T00:13:19;14.02;;;12.68;;
55037;SDS011;40937;53.594;10.034;2023-05-07T00:15:47;13.20;;;12.10;;
55037;SDS011;40937;53.594;10.034;2023-05-07T00:18:14;13.65;;;12.25;;
55037;SDS011;40937;53.594;10.034;2023-05-07T00:20:41;13.60;;;12.40;;
55037;SDS011;40937;53.594;10.034;2023-05-07T00:23:10;12.82;;;11.73;;
55037;SDS011;40937;53.594;10.034;2023-05-07T00:25:37;13.88;;;12.75;;
55037;SDS011;40937;53.594;10.034;2023-05-07T00:28:04;13.68;;;12.18;;
55037;SDS011;40937;53.594;10.034;2023-05-07T00:30:31;14.60;;;13.45;;
55037;SDS011;40937;53.594;10.034;2023-05-07T00:33:02;13.95;;;12.68;;
55037;SDS011;40937;53.594;10.034;2023-05-07T00:35:29;14.27;;;13.07;;
55037;SDS011;40937;53.594;10.034;2023-05-07T00:37:56;13.80;;;12.60;;
55037;SDS011;40937;53.594;10.034;2023-05-07T00:40:23;12.75;;;11.63;;
55037;SDS011;40937;53.594;10.034;2023-05-07T00:42:50;12.55;;;11.55;;
55037;SDS011;40937;53.594;10.034;2023-05-07T00:45:22;14.35;;;13.13;;
55037;SDS011;40937;53.594;10.034;2023-05-07T00:47:49;13.93;;;12.80;;
55037;SDS011;40937;53.594;10.034;2023-05-07T00:50:18;13.73;;;12.30;;
55037;SDS011;40937;53.594;10.034;2023-05-07T00:52:45;13.02;;;12.02;;
55037;SDS011;40937;53.594;10.034;2023-05-07T00:55:12;13.27;;;12.25;;
55037;SDS011;40937;53.594;10.034;2023-05-07T00:57:40;13.27;;;12.27;;
55037;SDS011;40937;53.594;10.034;2023-05-07T01:00:07;14.38;;;12.95;;
55037;SDS011;40937;53.594;10.034;2023-05-07T01:02:35;13.27;;;12.18;;
55037;SDS011;40937;53.594;10.034;2023-05-07T01:05:02;12.70;;;11.68;;
55037;SDS011;40937;53.594;10.034;2023-05-07T01:07:31;13.93;;;12.57;;
55037;SDS011;40937;53.594;10.034;2023-05-07T01:09:58;14.43;;;13.07;;
55037;SDS011;40937;53.594;10.034;2023-05-07T01:12:25;12.95;;;11.75;;
55037;SDS011;40937;53.594;10.034;2023-05-07T01:14:53;13.98;;;12.68;;
55037;SDS011;40937;53.594;10.034;2023-05-07T01:17:20;12.88;;;11.82;;
55037;SDS011;40937;53.594;10.034;2023-05-07T01:19:47;12.75;;;11.75;;
55037;SDS011;40937;53.594;10.034;2023-05-07T01:22:15;13.32;;;12.00;;
55037;SDS011;40937;53.594;10.034;2023-05-07T01:24:50;12.43;;;11.43;;
55037;SDS011;40937;53.594;10.034;2023-05-07T01:27:18;13.15;;;11.85;;
55037;SDS011;40937;53.594;10.034;2023-05-07T01:29:46;11.93;;;10.85;;
55037;SDS011;40937;53.594;10.034;2023-05-07T01:32:13;12.02;;;11.13;;
55037;SDS011;40937;53.594;10.034;2023-05-07T01:34:40;12.05;;;11.15;;
55037;SDS011;40937;53.594;10.034;2023-05-07T01:37:07;11.85;;;10.60;;
55037;SDS011;40937;53.594;10.034;2023-05-07T01:39:35;11.80;;;10.70;;
55037;SDS011;40937;53.594;10.034;2023-05-07T01:42:04;12.43;;;11.32;;
55037;SDS011;40937;53.594;10.034;2023-05-07T01:44:31;12.38;;;11.45;;
55037;SDS011;40937;53.594;10.034;2023-05-07T01:46:58;11.10;;;10.25;;
55037;SDS011;40937;53.594;10.034;2023-05-07T01:49:25;12.32;;;11.20;;
55037;SDS011;40937;53.594;10.034;2023-05-07T01:51:52;11.75;;;10.85;;
55037;SDS011;40937;53.594;10.034;2023-05-07T01:54:24;11.07;;;10.18;;
55037;SDS011;40937;53.594;10.034;2023-05-07T01:56:53;12.40;;;11.30;;
55037;SDS011;40937;53.594;10.034;2023-05-07T01:59:21;12.10;;;11.25;;
55037;SDS011;40937;53.594;10.034;2023-05-07T02:01:48;11.45;;;10.65;;
55037;SDS011;40937;53.594;10.034;2023-05-07T02:04:15;11.35;;;10.55;;
55037;SDS011;40937;53.594;10.034;2023-05-07T02:06:44;11.82;;;10.95;;
55037;SDS011;40937;53.594;10.034;2023-05-07T02:09:14;11.90;;;10.90;;
55037;SDS011;40937;53.594;10.034;2023-05-07T02:11:47;11.55;;;10.68;;
55037;SDS011;40937;53.594;10.034;2023-05-07T02:14:14;11.07;;;10.07;;
55037;SDS011;40937;53.594;10.034;2023-05-07T02:16:42;10.57;;;9.77;;
55037;SDS011;40937;53.594;10.034;2023-05-07T02:19:12;11.60;;;10.60;;
55037;SDS011;40937;53.594;10.034;2023-05-07T02:21:39;10.85;;;10.00;;
55037;SDS011;40937;53.594;10.034;2023-05-07T02:24:06;10.50;;;9.80;;
55037;SDS011;40937;53.594;10.034;2023-05-07T02:26:35;11.48;;;10.48;;
55037;SDS011;40937;53.594;10.034;2023-05-07T02:29:02;10.50;;;9.60;;
55037;SDS011;40937;53.594;10.034;2023-05-07T02:31:29;10.88;;;9.93;;
55037;SDS011;40937;53.594;10.034;2023-05-07T02:33:57;10.23;;;9.43;;
55037;SDS011;40937;53.594;10.034;2023-05-07T02:36:24;10.95;;;10.02;;
55037;SDS011;40937;53.594;10.034;2023-05-07T02:39:02;11.10;;;10.20;;
55037;SDS011;40937;53.594;10.034;2023-05-07T02:41:28;10.18;;;9.35;;
55037;SDS011;40937;53.594;10.034;2023-05-07T02:43:55;10.80;;;9.85;;
55037;SDS011;40937;53.594;10.034;2023-05-07T02:46:22;10.70;;;9.70;;
55037;SDS011;40937;53.594;10.034;2023-05-07T02:48:59;10.90;;;9.95;;
55037;SDS011;40937;53.594;10.034;2023-05-07T02:51:26;9.90;;;9.10;;
55037;SDS011;40937;53.594;10.034;2023-05-07T02:53:55;11.65;;;10.65;;
55037;SDS011;40937;53.594;10.034;2023-05-07T02:56:22;10.65;;;9.65;;
55037;SDS011;40937;53.594;10.034;2023-05-07T02:58:49;11.23;;;10.32;;
55037;SDS011;40937;53.594;10.034;2023-05-07T03:01:17;12.68;;;11.57;;
55037;SDS011;40937;53.594;10.034;2023-05-07T03:03:54;13.05;;;11.77;;
55037;SDS011;40937;53.594;10.034;2023-05-07T03:06:23;12.77;;;11.68;;
55037;SDS011;40937;53.594;10.034;2023-05-07T03:08:50;11.95;;;10.95;;
55037;SDS011;40937;53.594;10.034;2023-05-07T03:11:17;12.32;;;11.25;;
55037;SDS011;40937;53.594;10.034;2023-05-07T03:13:44;13.15;;;12.05;;
55037;SDS011;40937;53.594;10.034;2023-05-07T03:16:11;12.45;;;11.45;;
55037;SDS011;40937;53.594;10.034;2023-05-07T03:18:38;13.15;;;11.95;;
55037;SDS011;40937;53.594;10.034;2023-05-07T03:21:05;13.60;;;12.40;;
55037;SDS011;40937;53.594;10.034;2023-05-07T03:23:36;15.45;;;12.27;;
55037;SDS011;40937;53.594;10.034;2023-05-07T03:26:03;13.45;;;12.30;;
55037;SDS011;40937;53.594;10.034;2023-05-07T03:28:32;12.70;;;11.63;;
55037;SDS011;40937;53.594;10.034;2023-05-07T03:31:05;12.57;;;11.55;;
55037;SDS011;40937;53.594;10.034;2023-05-07T03:33:33;13.00;;;11.93;;
55037;SDS011;40937;53.594;10.034;2023-05-07T03:36:00;12.32;;;11.35;;
55037;SDS011;40937;53.594;10.034;2023-05-07T03:38:27;12.23;;;11.25;;
55037;SDS011;40937;53.594;10.034;2023-05-07T03:40:55;13.07;;;11.98;;
55037;SDS011;40937;53.594;10.034;2023-05-07T03:43:23;12.73;;;11.68;;
55037;SDS011;40937;53.594;10.034;2023-05-07T03:45:57;11.73;;;10.82;;
55037;SDS011;40937;53.594;10.034;2023-05-07T03:48:27;11.93;;;10.82;;
55037;SDS011;40937;53.594;10.034;2023-05-07T03:50:57;10.82;;;9.93;;
55037;SDS011;40937;53.594;10.034;2023-05-07T03:53:27;13.73;;;10.10;;
55037;SDS011;40937;53.594;10.034;2023-05-07T03:55:56;10.52;;;9.73;;
55037;SDS011;40937;53.594;10.034;2023-05-07T03:58:23;11.45;;;10.55;;
55037;SDS011;40937;53.594;10.034;2023-05-07T04:00:51;10.25;;;9.45;;
55037;SDS011;40937;53.594;10.034;2023-05-07T04:03:25;10.95;;;10.13;;
55037;SDS011;40937;53.594;10.034;2023-05-07T04:05:53;12.32;;;11.43;;
55037;SDS011;40937;53.594;10.034;2023-05-07T04:08:21;12.02;;;11.13;;
55037;SDS011;40937;53.594;10.034;2023-05-07T04:10:55;11.90;;;11.10;;
55037;SDS011;40937;53.594;10.034;2023-05-07T04:27:29;12.07;;;11.07;;
55037;SDS011;40937;53.594;10.034;2023-05-07T04:29:56;10.63;;;9.80;;
55037;SDS011;40937;53.594;10.034;2023-05-07T04:32:24;10.77;;;9.88;;
55037;SDS011;40937;53.594;10.034;2023-05-07T05:01:22;10.73;;;9.82;;
55037;SDS011;40937;53.594;10.034;2023-05-07T05:03:49;10.95;;;10.05;;
55037;SDS011;40937;53.594;10.034;2023-05-07T05:06:17;10.77;;;9.77;;
55037;SDS011;40937;53.594;10.034;2023-05-07T05:08:43;10.98;;;10.05;;
55037;SDS011;40937;53.594;10.034;2023-05-07T05:11:10;10.40;;;9.60;;
55037;SDS011;40937;53.594;10.034;2023-05-07T05:13:38;9.63;;;8.93;;
55037;SDS011;40937;53.594;10.034;2023-05-07T05:16:12;10.77;;;9.88;;
55037;SDS011;40937;53.594;10.034;2023-05-07T05:18:41;10.48;;;9.52;;
55037;SDS011;40937;53.594;10.034;2023-05-07T05:21:09;10.50;;;9.60;;
55037;SDS011;40937;53.594;10.034;2023-05-07T05:41:04;11.88;;;10.63;;
55037;SDS011;40937;53.594;10.034;2023-05-07T05:59:49;11.02;;;10.02;;
55037;SDS011;40937;53.594;10.034;2023-05-07T06:02:16;11.63;;;9.98;;
55037;SDS011;40937;53.594;10.034;2023-05-07T06:04:43;10.60;;;9.65;;
55037;SDS011;40937;53.594;10.034;2023-05-07T06:07:14;10.07;;;9.38;;
55037;SDS011;40937;53.594;10.034;2023-05-07T06:09:41;10.57;;;9.77;;
55037;SDS011;40937;53.594;10.034;2023-05-07T06:12:08;10.07;;;9.27;;
55037;SDS011;40937;53.594;10.034;2023-05-07T06:44:07;9.52;;;8.73;;
55037;SDS011;40937;53.594;10.034;2023-05-07T06:46:42;8.88;;;8.18;;
55037;SDS011;40937;53.594;10.034;2023-05-07T06:49:10;8.43;;;7.78;;
55037;SDS011;40937;53.594;10.034;2023-05-07T06:51:39;9.30;;;8.45;;
55037;SDS011;40937;53.594;10.034;2023-05-07T06:54:06;9.30;;;8.50;;
55037;SDS011;40937;53.594;10.034;2023-05-07T06:56:38;8.73;;;8.13;;
55037;SDS011;40937;53.594;10.034;2023-05-07T06:59:05;8.32;;;7.68;;
55037;SDS011;40937;53.594;10.034;2023-05-07T07:01:37;8.90;;;7.25;;
55037;SDS011;40937;53.594;10.034;2023-05-07T07:25:45;8.18;;;7.45;;
55037;SDS011;40937;53.594;10.034;2023-05-07T07:40:14;6.97;;;6.45;;
55037;SDS011;40937;53.594;10.034;2023-05-07T08:11:00;7.10;;;6.20;;
55037;SDS011;40937;53.594;10.034;2023-05-07T08:13:31;7.22;;;6.65;;
55037;SDS011;40937;53.594;10.034;2023-05-07T08:15:59;7.60;;;6.82;;
55037;SDS011;40937;53.594;10.034;2023-05-07T08:18:26;7.50;;;6.80;;
55037;SDS011;40937;53.594;10.034;2023-05-07T08:20:56;11.23;;;6.95;;
55037;SDS011;40937;53.594;10.034;2023-05-07T08:23:25;7.50;;;6.90;;
55037;SDS011;40937;53.594;10.034;2023-05-07T08:25:53;7.50;;;6.82;;
55037;SDS011;40937;53.594;10.034;2023-05-07T08:28:22;9.50;;;7.00;;
55037;SDS011;40937;53.594;10.034;2023-05-07T08:30:51;7.28;;;6.65;;
55037;SDS011;40937;53.594;10.034;2023-05-07T08:33:18;7.78;;;7.28;;
55037;SDS011;40937;53.594;10.034;2023-05-07T08:35:45;7.65;;;6.90;;
55037;SDS011;40937;53.594;10.034;2023-05-07T08:38:14;8.70;;;6.85;;
55037;SDS011;40937;53.594;10.034;2023-05-07T08:40:41;7.90;;;7.20;;
55037;SDS011;40937;53.594;10.034;2023-05-07T08:43:14;8.10;;;6.43;;
55037;SDS011;40937;53.594;10.034;2023-05-07T08:45:43;6.80;;;6.30;;
55037;SDS011;40937;53.594;10.034;2023-05-07T08:48:14;6.97;;;6.55;;
55037;SDS011;40937;53.594;10.034;2023-05-07T08:50:43;7.72;;;6.80;;
55037;SDS011;40937;53.594;10.034;2023-05-07T08:53:10;7.20;;;6.70;;
55037;SDS011;40937;53.594;10.034;2023-05-07T08:55:39;7.18;;;6.68;;
55037;SDS011;40937;53.594;10.034;2023-05-07T08:58:06;7.68;;;6.53;;
55037;SDS011;40937;53.594;10.034;2023-05-07T09:00:37;7.25;;;6.75;;
55037;SDS011;40937;53.594;10.034;2023-05-07T09:03:05;6.90;;;6.32;;
55037;SDS011;40937;53.594;10.034;2023-05-07T09:05:34;6.68;;;6.18;;
55037;SDS011;40937;53.594;10.034;2023-05-07T09:08:02;6.72;;;5.88;;
55037;SDS011;40937;53.594;10.034;2023-05-07T09:10:29;7.13;;;6.55;;
55037;SDS011;40937;53.594;10.034;2023-05-07T09:12:56;6.78;;;6.18;;
55037;SDS011;40937;53.594;10.034;2023-05-07T09:15:23;6.13;;;5.75;;
55037;SDS011;40937;53.594;10.034;2023-05-07T09:17:51;6.57;;;5.80;;
55037;SDS011;40937;53.594;10.034;2023-05-07T09:20:19;6.53;;;5.78;;
55037;SDS011;40937;53.594;10.034;2023-05-07T09:22:47;6.05;;;5.55;;
55037;SDS011;40937;53.594;10.034;2023-05-07T09:25:17;6.45;;;5.95;;
55037;SDS011;40937;53.594;10.034;2023-05-07T09:27:54;6.40;;;5.72;;
55037;SDS011;40937;53.594;10.034;2023-05-07T09:30:21;5.75;;;5.35;;
55037;SDS011;40937;53.594;10.034;2023-05-07T09:32:49;5.93;;;5.53;;
55037;SDS011;40937;53.594;10.034;2023-05-07T09:35:20;8.10;;;5.93;;
55037;SDS011;40937;53.594;10.034;2023-05-07T09:37:55;6.05;;;5.55;;
55037;SDS011;40937;53.594;10.034;2023-05-07T09:40:24;5.78;;;5.38;;
55037;SDS011;40937;53.594;10.034;2023-05-07T09:42:52;5.85;;;5.35;;
55037;SDS011;40937;53.594;10.034;2023-05-07T09:45:24;5.50;;;5.10;;
55037;SDS011;40937;53.594;10.034;2023-05-07T09:47:53;6.10;;;5.47;;
55037;SDS011;40937;53.594;10.034;2023-05-07T09:50:23;5.65;;;5.25;;
55037;SDS011;40937;53.594;10.034;2023-05-07T09:52:52;5.70;;;5.30;;
55037;SDS011;40937;53.594;10.034;2023-05-07T09:55:21;5.65;;;5.25;;
55037;SDS011;40937;53.594;10.034;2023-05-07T09:57:48;5.75;;;5.35;;
55037;SDS011;40937;53.594;10.034;2023-05-07T10:00:17;5.28;;;4.88;;
55037;SDS011;40937;53.594;10.034;2023-05-07T10:02:48;4.90;;;4.50;;
55037;SDS011;40937;53.594;10.034;2023-05-07T10:05:20;5.85;;;5.43;;
55037;SDS011;40937;53.594;10.034;2023-05-07T10:07:50;5.57;;;5.18;;
55037;SDS011;40937;53.594;10.034;2023-05-07T10:10:17;11.32;;;5.15;;
55037;SDS011;40937;53.594;10.034;2023-05-07T10:12:46;6.20;;;5.70;;
55037;SDS011;40937;53.594;10.034;2023-05-07T10:15:20;5.80;;;5.38;;
55037;SDS011;40937;53.594;10.034;2023-05-07T10:17:52;6.22;;;5.68;;
55037;SDS011;40937;53.594;10.034;2023-05-07T10:20:20;5.47;;;5.07;;
55037;SDS011;40937;53.594;10.034;2023-05-07T10:22:48;5.43;;;5.03;;
55037;SDS011;40937;53.594;10.034;2023-05-07T10:25:26;5.80;;;5.35;;
55037;SDS011;40937;53.594;10.034;2023-05-07T10:27:57;5.72;;;5.20;;
55037;SDS011;40937;53.594;10.034;2023-05-07T10:30:26;5.63;;;5.32;;
55037;SDS011;40937;53.594;10.034;2023-05-07T10:33:01;6.13;;;5.55;;
55037;SDS011;40937;53.594;10.034;2023-05-07T10:35:36;5.53;;;5.13;;
55037;SDS011;40937;53.594;10.034;2023-05-07T10:38:04;7.93;;;5.53;;
55037;SDS011;40937;53.594;10.034;2023-05-07T10:40:35;5.90;;;4.70;;
55037;SDS011;40937;53.594;10.034;2023-05-07T10:43:04;5.05;;;4.75;;
55037;SDS011;40937;53.594;10.034;2023-05-07T10:45:37;5.63;;;5.10;;
55037;SDS011;40937;53.594;10.034;2023-05-07T10:48:05;11.90;;;5.00;;
55037;SDS011;40937;53.594;10.034;2023-05-07T10:50:32;13.77;;;5.10;;
55037;SDS011;40937;53.594;10.034;2023-05-07T10:53:21;5.10;;;4.68;;
55037;SDS011;40937;53.594;10.034;2023-05-07T11:01:54;5.15;;;4.25;;
55037;SDS011;40937;53.594;10.034;2023-05-07T11:04:33;4.50;;;4.20;;
55037;SDS011;40937;53.594;10.034;2023-05-07T11:07:29;4.57;;;4.28;;
55037;SDS011;40937;53.594;10.034;2023-05-07T11:10:02;4.20;;;3.90;;
55037;SDS011;40937;53.594;10.034;2023-05-07T11:12:53;4.10;;;3.80;;
55037;SDS011;40937;53.594;10.034;2023-05-07T11:15:34;4.13;;;3.83;;
55037;SDS011;40937;53.594;10.034;2023-05-07T11:18:04;4.30;;;4.00;;
55037;SDS011;40937;53.594;10.034;2023-05-07T11:20:46;4.32;;;4.03;;
55037;SDS011;40937;53.594;10.034;2023-05-07T11:26:51;8.07;;;3.90;;
55037;SDS011;40937;53.594;10.034;2023-05-07T11:29:21;4.25;;;3.90;;
55037;SDS011;40937;53.594;10.034;2023-05-07T11:31:50;4.25;;;3.85;;
55037;SDS011;40937;53.594;10.034;2023-05-07T11:34:23;4.28;;;3.97;;
55037;SDS011;40937;53.594;10.034;2023-05-07T11:36:52;4.75;;;4.35;;
55037;SDS011;40937;53.594;10.034;2023-05-07T11:39:26;3.78;;;3.55;;
55037;SDS011;40937;53.594;10.034;2023-05-07T11:41:55;6.28;;;3.83;;
55037;SDS011;40937;53.594;10.034;2023-05-07T11:44:22;3.55;;;3.25;;
55037;SDS011;40937;53.594;10.034;2023-05-07T11:46:49;6.13;;;3.58;;
55037;SDS011;40937;53.594;10.034;2023-05-07T11:49:24;4.35;;;3.83;;
55037;SDS011;40937;53.594;10.034;2023-05-07T11:51:51;3.80;;;3.53;;
55037;SDS011;40937;53.594;10.034;2023-05-07T11:54:18;3.85;;;3.65;;
55037;SDS011;40937;53.594;10.034;2023-05-07T11:56:46;3.67;;;3.47;;
55037;SDS011;40937;53.594;10.034;2023-05-07T11:59:16;3.85;;;3.55;;
55037;SDS011;40937;53.594;10.034;2023-05-07T12:01:45;3.80;;;3.50;;
55037;SDS011;40937;53.594;10.034;2023-05-07T12:04:14;3.40;;;3.10;;
55037;SDS011;40937;53.594;10.034;2023-05-07T12:06:42;4.22;;;3.40;;
55037;SDS011;40937;53.594;10.034;2023-05-07T12:09:09;3.53;;;3.33;;
55037;SDS011;40937;53.594;10.034;2023-05-07T12:11:37;4.13;;;3.83;;
55037;SDS011;40937;53.594;10.034;2023-05-07T12:14:06;5.93;;;3.00;;
55037;SDS011;40937;53.594;10.034;2023-05-07T12:16:33;2.88;;;2.67;;
55037;SDS011;40937;53.594;10.034;2023-05-07T12:19:00;2.70;;;2.60;;
55037;SDS011;40937;53.594;10.034;2023-05-07T12:21:27;3.00;;;2.80;;
55037;SDS011;40937;53.594;10.034;2023-05-07T12:23:55;3.05;;;2.85;;
55037;SDS011;40937;53.594;10.034;2023-05-07T12:26:22;2.60;;;2.47;;
55037;SDS011;40937;53.594;10.034;2023-05-07T12:28:50;3.03;;;2.70;;
55037;SDS011;40937;53.594;10.034;2023-05-07T12:31:20;3.70;;;3.25;;
55037;SDS011;40937;53.594;10.034;2023-05-07T12:33:47;2.70;;;2.50;;
55037;SDS011;40937;53.594;10.034;2023-05-07T12:36:15;3.33;;;2.33;;
55037;SDS011;40937;53.594;10.034;2023-05-07T12:38:42;12.30;;;2.97;;
55037;SDS011;40937;53.594;10.034;2023-05-07T12:41:10;5.22;;;2.35;;
55037;SDS011;40937;53.594;10.034;2023-05-07T12:43:37;2.55;;;2.45;;
55037;SDS011;40937;53.594;10.034;2023-05-07T12:46:05;4.53;;;2.65;;
55037;SDS011;40937;53.594;10.034;2023-05-07T12:48:32;2.25;;;2.15;;
55037;SDS011;40937;53.594;10.034;2023-05-07T12:51:00;3.10;;;2.30;;
55037;SDS011;40937;53.594;10.034;2023-05-07T12:53:27;2.22;;;1.85;;
55037;SDS011;40937;53.594;10.034;2023-05-07T12:55:55;2.50;;;2.30;;
55037;SDS011;40937;53.594;10.034;2023-05-07T12:58:26;2.75;;;2.65;;
55037;SDS011;40937;53.594;10.034;2023-05-07T13:00:53;2.35;;;2.15;;
55037;SDS011;40937;53.594;10.034;2023-05-07T13:03:25;2.40;;;2.20;;
55037;SDS011;40937;53.594;10.034;2023-05-07T13:05:55;2.55;;;2.35;;
55037;SDS011;40937;53.594;10.034;2023-05-07T13:08:26;2.55;;;2.35;;
55037;SDS011;40937;53.594;10.034;2023-05-07T13:10:53;2.88;;;2.60;;
55037;SDS011;40937;53.594;10.034;2023-05-07T13:13:20;2.90;;;2.70;;
55037;SDS011;40937;53.594;10.034;2023-05-07T13:15:48;2.13;;;2.03;;
55037;SDS011;40937;53.594;10.034;2023-05-07T13:18:15;2.10;;;2.00;;
55037;SDS011;40937;53.594;10.034;2023-05-07T13:20:42;4.13;;;2.13;;
55037;SDS011;40937;53.594;10.034;2023-05-07T13:23:09;4.35;;;1.85;;
55037;SDS011;40937;53.594;10.034;2023-05-07T13:25:36;2.40;;;2.20;;
55037;SDS011;40937;53.594;10.034;2023-05-07T13:28:03;2.33;;;2.22;;
55037;SDS011;40937;53.594;10.034;2023-05-07T13:30:30;2.97;;;2.33;;
55037;SDS011;40937;53.594;10.034;2023-05-07T13:33:00;2.88;;;2.03;;
55037;SDS011;40937;53.594;10.034;2023-05-07T13:35:27;5.03;;;2.10;;
55037;SDS011;40937;53.594;10.034;2023-05-07T13:37:54;3.92;;;2.38;;
55037;SDS011;40937;53.594;10.034;2023-05-07T13:40:21;5.28;;;2.20;;
55037;SDS011;40937;53.594;10.034;2023-05-07T13:42:48;2.45;;;2.20;;
55037;SDS011;40937;53.594;10.034;2023-05-07T13:45:15;2.10;;;1.90;;
55037;SDS011;40937;53.594;10.034;2023-05-07T13:47:43;3.78;;;2.30;;
55037;SDS011;40937;53.594;10.034;2023-05-07T13:50:11;3.75;;;1.90;;
55037;SDS011;40937;53.594;10.034;2023-05-07T13:52:39;3.33;;;2.25;;
55037;SDS011;40937;53.594;10.034;2023-05-07T13:55:08;2.42;;;2.08;;
55037;SDS011;40937;53.594;10.034;2023-05-07T13:57:35;2.53;;;2.10;;
55037;SDS011;40937;53.594;10.034;2023-05-07T14:01:25;4.47;;;4.18;;
55037;SDS011;40937;53.594;10.034;2023-05-07T14:05:26;2.95;;;2.42;;
55037;SDS011;40937;53.594;10.034;2023-05-07T14:11:38;3.92;;;3.58;;
55037;SDS011;40937;53.594;10.034;2023-05-07T14:14:05;2.22;;;2.03;;
55037;SDS011;40937;53.594;10.034;2023-05-07T14:16:33;2.00;;;1.90;;
55037;SDS011;40937;53.594;10.034;2023-05-07T14:19:00;4.85;;;2.20;;
55037;SDS011;40937;53.594;10.034;2023-05-07T14:21:27;2.28;;;1.90;;
55037;SDS011;40937;53.594;10.034;2023-05-07T14:23:54;2.30;;;2.20;;
55037;SDS011;40937;53.594;10.034;2023-05-07T14:26:22;2.25;;;1.90;;
55037;SDS011;40937;53.594;10.034;2023-05-07T14:28:50;1.85;;;1.75;;
55037;SDS011;40937;53.594;10.034;2023-05-07T14:31:17;2.42;;;2.22;;
55037;SDS011;40937;53.594;10.034;2023-05-07T14:33:45;2.20;;;2.10;;
55037;SDS011;40937;53.594;10.034;2023-05-07T14:36:13;3.53;;;2.30;;
55037;SDS011;40937;53.594;10.034;2023-05-07T14:38:41;3.42;;;2.17;;
55037;SDS011;40937;53.594;10.034;2023-05-07T14:41:08;2.25;;;2.10;;
55037;SDS011;40937;53.594;10.034;2023-05-07T14:43:35;4.38;;;3.97;;
55037;SDS011;40937;53.594;10.034;2023-05-07T14:46:04;3.42;;;3.13;;
55037;SDS011;40937;53.594;10.034;2023-05-07T14:48:31;3.67;;;2.13;;
55037;SDS011;40937;53.594;10.034;2023-05-07T14:50:58;4.10;;;2.63;;
55037;SDS011;40937;53.594;10.034;2023-05-07T14:53:25;2.63;;;2.42;;
55037;SDS011;40937;53.594;10.034;2023-05-07T14:55:52;3.33;;;1.90;;
55037;SDS011;40937;53.594;10.034;2023-05-07T14:58:20;1.83;;;1.70;;
55037;SDS011;40937;53.594;10.034;2023-05-07T15:00:47;7.05;;;1.92;;
55037;SDS011;40937;53.594;10.034;2023-05-07T15:03:19;2.65;;;2.10;;
55037;SDS011;40937;53.594;10.034;2023-05-07T15:05:47;2.63;;;2.20;;
55037;SDS011;40937;53.594;10.034;2023-05-07T15:08:16;1.98;;;1.88;;
55037;SDS011;40937;53.594;10.034;2023-05-07T15:10:44;2.00;;;1.73;;
55037;SDS011;40937;53.594;10.034;2023-05-07T15:13:11;1.88;;;1.77;;
55037;SDS011;40937;53.594;10.034;2023-05-07T15:15:42;2.13;;;1.70;;
55037;SDS011;40937;53.594;10.034;2023-05-07T15:18:10;3.17;;;1.83;;
55037;SDS011;40937;53.594;10.034;2023-05-07T15:20:39;3.60;;;2.20;;
55037;SDS011;40937;53.594;10.034;2023-05-07T15:23:07;5.53;;;1.98;;
55037;SDS011;40937;53.594;10.034;2023-05-07T15:25:38;2.55;;;2.45;;
55037;SDS011;40937;53.594;10.034;2023-05-07T15:28:05;2.10;;;2.00;;
55037;SDS011;40937;53.594;10.034;2023-05-07T15:30:32;2.60;;;2.10;;
55037;SDS011;40937;53.594;10.034;2023-05-07T15:33:00;2.45;;;2.05;;
55037;SDS011;40937;53.594;10.034;2023-05-07T15:35:27;1.95;;;1.85;;
55037;SDS011;40937;53.594;10.034;2023-05-07T15:37:56;2.30;;;2.08;;
55037;SDS011;40937;53.594;10.034;2023-05-07T15:40:23;3.05;;;2.30;;
55037;SDS011;40937;53.594;10.034;2023-05-07T15:42:51;2.03;;;1.92;;
55037;SDS011;40937;53.594;10.034;2023-05-07T15:45:21;2.38;;;2.17;;
55037;SDS011;40937;53.594;10.034;2023-05-07T15:47:48;2.50;;;2.03;;
55037;SDS011;40937;53.594;10.034;2023-05-07T15:50:16;2.33;;;2.13;;
55037;SDS011;40937;53.594;10.034;2023-05-07T15:52:43;2.95;;;2.38;;
55037;SDS011;40937;53.594;10.034;2023-05-07T15:55:13;12.07;;;2.40;;
55037;SDS011;40937;53.594;10.034;2023-05-07T15:57:40;2.33;;;2.22;;
55037;SDS011;40937;53.594;10.034;2023-05-07T16:00:08;5.32;;;3.50;;
55037;SDS011;40937;53.594;10.034;2023-05-07T16:02:39;3.08;;;2.88;;
55037;SDS011;40937;53.594;10.034;2023-05-07T16:05:07;5.32;;;2.58;;
55037;SDS011;40937;53.594;10.034;2023-05-07T16:07:35;3.80;;;2.90;;
55037;SDS011;40937;53.594;10.034;2023-05-07T16:10:03;3.00;;;2.60;;
55037;SDS011;40937;53.594;10.034;2023-05-07T16:12:33;4.10;;;2.67;;
55037;SDS011;40937;53.594;10.034;2023-05-07T16:15:01;2.40;;;2.20;;
55037;SDS011;40937;53.594;10.034;2023-05-07T16:17:28;2.80;;;2.33;;
55037;SDS011;40937;53.594;10.034;2023-05-07T16:19:57;4.50;;;2.22;;
55037;SDS011;40937;53.594;10.034;2023-05-07T16:22:24;3.95;;;1.85;;
55037;SDS011;40937;53.594;10.034;2023-05-07T16:24:54;2.10;;;2.00;;
55037;SDS011;40937;53.594;10.034;2023-05-07T16:27:21;2.10;;;1.90;;
55037;SDS011;40937;53.594;10.034;2023-05-07T16:29:49;2.83;;;2.60;;
55037;SDS011;40937;53.594;10.034;2023-05-07T16:32:16;3.53;;;2.42;;
55037;SDS011;40937;53.594;10.034;2023-05-07T16:34:44;2.28;;;2.08;;
55037;SDS011;40937;53.594;10.034;2023-05-07T16:37:12;2.55;;;2.45;;
55037;SDS011;40937;53.594;10.034;2023-05-07T16:39:39;2.78;;;2.58;;
55037;SDS011;40937;53.594;10.034;2023-05-07T16:42:06;2.75;;;2.55;;
55037;SDS011;40937;53.594;10.034;2023-05-07T16:44:36;3.40;;;3.10;;
55037;SDS011;40937;53.594;10.034;2023-05-07T16:47:05;3.03;;;2.10;;
55037;SDS011;40937;53.594;10.034;2023-05-07T16:49:32;2.90;;;2.55;;
55037;SDS011;40937;53.594;10.034;2023-05-07T16:51:59;3.38;;;2.53;;
55037;SDS011;40937;53.594;10.034;2023-05-07T16:54:27;3.55;;;3.28;;
55037;SDS011;40937;53.594;10.034;2023-05-07T16:56:54;2.95;;;2.40;;
55037;SDS011;40937;53.594;10.034;2023-05-07T16:59:21;3.88;;;2.28;;
55037;SDS011;40937;53.594;10.034;2023-05-07T17:01:48;2.58;;;2.47;;
55037;SDS011;40937;53.594;10.034;2023-05-07T17:04:18;3.90;;;2.95;;
55037;SDS011;40937;53.594;10.034;2023-05-07T17:06:45;2.88;;;2.65;;
55037;SDS011;40937;53.594;10.034;2023-05-07T17:09:12;5.55;;;2.78;;
55037;SDS011;40937;53.594;10.034;2023-05-07T17:11:39;3.15;;;2.92;;
55037;SDS011;40937;53.594;10.034;2023-05-07T17:14:07;3.75;;;2.40;;
55037;SDS011;40937;53.594;10.034;2023-05-07T17:16:34;2.65;;;2.45;;
55037;SDS011;40937;53.594;10.034;2023-05-07T17:19:01;3.63;;;3.28;;
55037;SDS011;40937;53.594;10.034;2023-05-07T17:21:30;3.85;;;3.05;;
55037;SDS011;40937;53.594;10.034;2023-05-07T17:23:57;5.95;;;2.78;;
55037;SDS011;40937;53.594;10.034;2023-05-07T17:26:24;6.18;;;2.10;;
55037;SDS011;40937;53.594;10.034;2023-05-07T17:28:52;2.50;;;2.30;;
55037;SDS011;40937;53.594;10.034;2023-05-07T17:31:19;2.63;;;2.33;;
55037;SDS011;40937;53.594;10.034;2023-05-07T17:33:46;3.03;;;2.78;;
55037;SDS011;40937;53.594;10.034;2023-05-07T17:36:14;2.95;;;2.35;;